Terminal Aerodrome Forecast
Issued by NWS Charleston, WV

Current Version | Previous Version | Text Only | Print | Product List | Glossary Off
Versions: 1 2 3 4 5 6 7 8 9 10 11 12 13 14 15 16 17 18 19 20 21 22 23 24 25 26

000
FTUS41 KRLX 271400 AAB
TAFHTS
TAF AMD
KHTS 271423Z 2714/2812 03003KT P6SM FEW150
     FM280100 00000KT P6SM SCT200
     FM280800 00000KT 6SM BR SCT200=

USA.gov is the U.S. government's official web portal to all federal, state and local government web resources and services.